Aviation Digital Data Service (ADDS)

Output produced by TAFs form (1521 UTC 28 September 2016)
found at http://aviationweather.gov/adds/tafs/
 
KEGE 281120Z 2812/2912 VRB03KT P6SM SKC 
     FM282100 24007KT P6SM SCT250 
     FM290200 11005KT P6SM SCT250 AMD LTD TO CLD VIS AND WIND TIL 281300